sensor_id;sensor_type;location;lat;lon;timestamp;pressure;altitude;pressure_sealevel;temperature;humidity
20889;BME280;10604;51.976;7.594;2023-03-13T00:00:51;99679.41;;;11.60;77.15
20889;BME280;10604;51.976;7.594;2023-03-13T00:03:17;99672.56;;;11.56;77.36
20889;BME280;10604;51.976;7.594;2023-03-13T00:05:43;99668.09;;;11.58;77.09
20889;BME280;10604;51.976;7.594;2023-03-13T00:08:08;99671.16;;;11.66;77.00
20889;BME280;10604;51.976;7.594;2023-03-13T00:10:40;99669.63;;;11.62;77.49
20889;BME280;10604;51.976;7.594;2023-03-13T00:13:07;99666.06;;;11.63;77.08
20889;BME280;10604;51.976;7.594;2023-03-13T00:15:33;99655.94;;;11.54;77.05
20889;BME280;10604;51.976;7.594;2023-03-13T00:17:58;99651.38;;;11.57;77.07
20889;BME280;10604;51.976;7.594;2023-03-13T00:20:24;99649.88;;;11.69;76.54
20889;BME280;10604;51.976;7.594;2023-03-13T00:22:49;99652.16;;;11.76;76.19
20889;BME280;10604;51.976;7.594;2023-03-13T00:25:15;99637.94;;;11.62;77.12
20889;BME280;10604;51.976;7.594;2023-03-13T00:27:40;99631.84;;;11.60;77.34
20889;BME280;10604;51.976;7.594;2023-03-13T00:30:06;99624.13;;;11.57;77.32
20889;BME280;10604;51.976;7.594;2023-03-13T00:32:31;99624.78;;;11.60;77.66
20889;BME280;10604;51.976;7.594;2023-03-13T00:34:57;99625.31;;;11.67;77.24
20889;BME280;10604;51.976;7.594;2023-03-13T00:37:22;99615.25;;;11.58;77.44
20889;BME280;10604;51.976;7.594;2023-03-13T00:39:47;99609.66;;;11.64;77.75
20889;BME280;10604;51.976;7.594;2023-03-13T00:42:13;99607.75;;;11.66;77.09
20889;BME280;10604;51.976;7.594;2023-03-13T00:44:38;99611.66;;;11.59;77.85
20889;BME280;10604;51.976;7.594;2023-03-13T00:47:04;99599.69;;;11.69;77.67
20889;BME280;10604;51.976;7.594;2023-03-13T00:49:31;99603.50;;;11.63;78.65
20889;BME280;10604;51.976;7.594;2023-03-13T00:51:56;99593.63;;;11.67;79.58
20889;BME280;10604;51.976;7.594;2023-03-13T00:54:22;99595.53;;;11.65;79.97
20889;BME280;10604;51.976;7.594;2023-03-13T00:56:47;99578.09;;;11.61;80.33
20889;BME280;10604;51.976;7.594;2023-03-13T00:59:13;99572.25;;;11.38;81.93
20889;BME280;10604;51.976;7.594;2023-03-13T01:01:39;99569.59;;;11.38;83.03
20889;BME280;10604;51.976;7.594;2023-03-13T01:04:07;99558.78;;;11.27;84.07
20889;BME280;10604;51.976;7.594;2023-03-13T01:06:35;99564.19;;;11.24;84.96
20889;BME280;10604;51.976;7.594;2023-03-13T01:09:02;99556.06;;;11.12;85.54
20889;BME280;10604;51.976;7.594;2023-03-13T01:11:31;99549.00;;;11.12;86.66
20889;BME280;10604;51.976;7.594;2023-03-13T01:13:58;99552.41;;;11.14;87.18
20889;BME280;10604;51.976;7.594;2023-03-13T01:16:24;99539.84;;;11.02;88.06
20889;BME280;10604;51.976;7.594;2023-03-13T01:18:52;99545.13;;;11.02;88.77
20889;BME280;10604;51.976;7.594;2023-03-13T01:21:19;99529.91;;;11.07;88.89
20889;BME280;10604;51.976;7.594;2023-03-13T01:23:46;99521.38;;;11.02;89.37
20889;BME280;10604;51.976;7.594;2023-03-13T01:26:12;99522.00;;;10.90;90.15
20889;BME280;10604;51.976;7.594;2023-03-13T01:28:38;99511.78;;;10.84;90.81
20889;BME280;10604;51.976;7.594;2023-03-13T01:31:18;99505.09;;;10.77;91.81
20889;BME280;10604;51.976;7.594;2023-03-13T01:33:46;99502.53;;;10.75;92.48
20889;BME280;10604;51.976;7.594;2023-03-13T01:36:12;99486.50;;;10.63;93.39
20889;BME280;10604;51.976;7.594;2023-03-13T01:38:38;99486.63;;;10.59;93.92
20889;BME280;10604;51.976;7.594;2023-03-13T01:41:05;99481.22;;;10.63;94.76
20889;BME280;10604;51.976;7.594;2023-03-13T01:43:33;99479.69;;;10.58;95.49
20889;BME280;10604;51.976;7.594;2023-03-13T01:51:12;99467.78;;;10.67;95.40
20889;BME280;10604;51.976;7.594;2023-03-13T01:53:41;99462.16;;;10.57;95.59
20889;BME280;10604;51.976;7.594;2023-03-13T01:56:12;99445.78;;;10.51;95.44
20889;BME280;10604;51.976;7.594;2023-03-13T01:58:39;99431.28;;;10.42;96.25
20889;BME280;10604;51.976;7.594;2023-03-13T02:01:04;99427.41;;;10.49;95.55
20889;BME280;10604;51.976;7.594;2023-03-13T02:03:32;99409.75;;;10.51;96.48
20889;BME280;10604;51.976;7.594;2023-03-13T02:05:59;99413.91;;;10.55;96.56
20889;BME280;10604;51.976;7.594;2023-03-13T02:08:31;99395.13;;;10.62;95.81
20889;BME280;10604;51.976;7.594;2023-03-13T02:11:30;99395.31;;;10.58;96.74
20889;BME280;10604;51.976;7.594;2023-03-13T02:13:57;99388.16;;;10.60;97.03
20889;BME280;10604;51.976;7.594;2023-03-13T02:16:24;99372.50;;;10.57;98.23
20889;BME280;10604;51.976;7.594;2023-03-13T02:18:50;99371.44;;;10.44;99.15
20889;BME280;10604;51.976;7.594;2023-03-13T02:21:26;99370.94;;;10.53;100.00
20889;BME280;10604;51.976;7.594;2023-03-13T02:24:04;99357.16;;;10.48;100.00
20889;BME280;10604;51.976;7.594;2023-03-13T02:26:32;99352.34;;;10.39;100.00
20889;BME280;10604;51.976;7.594;2023-03-13T02:28:57;99345.69;;;10.49;100.00
20889;BME280;10604;51.976;7.594;2023-03-13T02:31:23;99340.16;;;10.54;100.00
20889;BME280;10604;51.976;7.594;2023-03-13T02:33:48;99331.81;;;10.46;100.00
20889;BME280;10604;51.976;7.594;2023-03-13T02:36:15;99317.38;;;10.53;100.00
20889;BME280;10604;51.976;7.594;2023-03-13T02:38:48;99314.06;;;10.49;100.00
20889;BME280;10604;51.976;7.594;2023-03-13T02:41:16;99299.84;;;10.52;100.00
20889;BME280;10604;51.976;7.594;2023-03-13T02:43:43;99310.50;;;10.50;100.00
20889;BME280;10604;51.976;7.594;2023-03-13T02:46:16;99298.16;;;10.51;100.00
20889;BME280;10604;51.976;7.594;2023-03-13T02:51:17;99289.81;;;10.43;100.00
20889;BME280;10604;51.976;7.594;2023-03-13T02:53:45;99278.75;;;10.36;100.00
20889;BME280;10604;51.976;7.594;2023-03-13T02:56:13;99273.94;;;10.44;100.00
20889;BME280;10604;51.976;7.594;2023-03-13T02:58:42;99271.50;;;10.40;100.00
20889;BME280;10604;51.976;7.594;2023-03-13T03:01:08;99261.75;;;10.42;100.00
20889;BME280;10604;51.976;7.594;2023-03-13T03:03:34;99266.84;;;10.45;100.00
20889;BME280;10604;51.976;7.594;2023-03-13T03:06:01;99251.38;;;10.54;100.00
20889;BME280;10604;51.976;7.594;2023-03-13T03:08:27;99259.63;;;10.48;100.00
20889;BME280;10604;51.976;7.594;2023-03-13T03:10:52;99263.78;;;10.52;100.00
20889;BME280;10604;51.976;7.594;2023-03-13T03:13:18;99254.63;;;10.59;100.00
20889;BME280;10604;51.976;7.594;2023-03-13T03:15:43;99240.69;;;10.57;100.00
20889;BME280;10604;51.976;7.594;2023-03-13T03:18:08;99235.22;;;10.60;100.00
20889;BME280;10604;51.976;7.594;2023-03-13T03:20:34;99230.47;;;10.67;100.00
20889;BME280;10604;51.976;7.594;2023-03-13T03:22:59;99225.19;;;10.67;100.00
20889;BME280;10604;51.976;7.594;2023-03-13T03:25:24;99239.69;;;10.76;100.00
20889;BME280;10604;51.976;7.594;2023-03-13T03:27:50;99231.31;;;10.68;100.00
20889;BME280;10604;51.976;7.594;2023-03-13T03:30:15;99222.34;;;10.72;100.00
20889;BME280;10604;51.976;7.594;2023-03-13T03:32:41;99215.50;;;10.68;100.00
20889;BME280;10604;51.976;7.594;2023-03-13T03:35:06;99209.91;;;10.74;100.00
20889;BME280;10604;51.976;7.594;2023-03-13T03:37:32;99206.16;;;10.78;100.00
20889;BME280;10604;51.976;7.594;2023-03-13T03:39:57;99195.53;;;10.79;100.00
20889;BME280;10604;51.976;7.594;2023-03-13T03:42:23;99190.34;;;10.78;100.00
20889;BME280;10604;51.976;7.594;2023-03-13T03:44:48;99187.94;;;10.89;100.00
20889;BME280;10604;51.976;7.594;2023-03-13T03:47:13;99169.66;;;10.86;100.00
20889;BME280;10604;51.976;7.594;2023-03-13T03:49:39;99163.84;;;10.95;100.00
20889;BME280;10604;51.976;7.594;2023-03-13T03:52:05;99172.03;;;10.90;100.00
20889;BME280;10604;51.976;7.594;2023-03-13T03:54:30;99175.00;;;11.00;100.00
20889;BME280;10604;51.976;7.594;2023-03-13T03:56:55;99170.75;;;10.97;100.00
20889;BME280;10604;51.976;7.594;2023-03-13T03:59:21;99169.72;;;11.00;100.00
20889;BME280;10604;51.976;7.594;2023-03-13T04:01:46;99177.59;;;10.86;100.00
20889;BME280;10604;51.976;7.594;2023-03-13T04:04:12;99159.69;;;10.91;100.00
20889;BME280;10604;51.976;7.594;2023-03-13T04:06:37;99174.00;;;10.87;100.00
20889;BME280;10604;51.976;7.594;2023-03-13T04:09:02;99169.81;;;10.98;100.00
20889;BME280;10604;51.976;7.594;2023-03-13T04:11:29;99169.53;;;11.03;100.00
20889;BME280;10604;51.976;7.594;2023-03-13T04:13:54;99167.09;;;11.00;100.00
20889;BME280;10604;51.976;7.594;2023-03-13T04:16:20;99164.09;;;11.06;100.00
20889;BME280;10604;51.976;7.594;2023-03-13T04:18:45;99153.91;;;11.00;100.00
20889;BME280;10604;51.976;7.594;2023-03-13T04:21:11;99158.63;;;11.09;100.00
20889;BME280;10604;51.976;7.594;2023-03-13T04:23:36;99159.59;;;11.08;100.00
20889;BME280;10604;51.976;7.594;2023-03-13T04:26:01;99146.56;;;11.05;100.00
20889;BME280;10604;51.976;7.594;2023-03-13T04:28:27;99151.16;;;11.02;100.00
20889;BME280;10604;51.976;7.594;2023-03-13T04:30:52;99145.06;;;11.01;100.00
20889;BME280;10604;51.976;7.594;2023-03-13T04:33:22;99145.56;;;10.92;100.00
20889;BME280;10604;51.976;7.594;2023-03-13T04:35:47;99145.13;;;10.99;100.00
20889;BME280;10604;51.976;7.594;2023-03-13T04:38:13;99137.53;;;11.09;100.00
20889;BME280;10604;51.976;7.594;2023-03-13T04:40:38;99135.84;;;11.08;100.00
20889;BME280;10604;51.976;7.594;2023-03-13T04:43:04;99141.28;;;11.05;100.00
20889;BME280;10604;51.976;7.594;2023-03-13T04:45:29;99131.22;;;11.12;100.00
20889;BME280;10604;51.976;7.594;2023-03-13T04:47:54;99127.97;;;11.22;100.00
20889;BME280;10604;51.976;7.594;2023-03-13T04:50:20;99118.34;;;11.21;100.00
20889;BME280;10604;51.976;7.594;2023-03-13T04:52:45;99122.69;;;11.22;100.00
20889;BME280;10604;51.976;7.594;2023-03-13T04:55:10;99132.16;;;11.41;100.00
20889;BME280;10604;51.976;7.594;2023-03-13T04:57:36;99121.22;;;11.47;100.00
20889;BME280;10604;51.976;7.594;2023-03-13T05:00:02;99127.72;;;11.41;100.00
20889;BME280;10604;51.976;7.594;2023-03-13T05:02:29;99118.03;;;11.42;100.00
20889;BME280;10604;51.976;7.594;2023-03-13T05:04:54;99121.78;;;11.52;100.00
20889;BME280;10604;51.976;7.594;2023-03-13T05:07:20;99108.59;;;11.52;100.00
20889;BME280;10604;51.976;7.594;2023-03-13T05:09:45;99112.00;;;11.54;100.00
20889;BME280;10604;51.976;7.594;2023-03-13T05:12:10;99122.19;;;11.60;100.00
20889;BME280;10604;51.976;7.594;2023-03-13T05:14:36;99107.19;;;11.60;100.00
20889;BME280;10604;51.976;7.594;2023-03-13T05:17:01;99102.75;;;11.61;100.00
20889;BME280;10604;51.976;7.594;2023-03-13T05:19:26;99107.66;;;11.67;100.00
20889;BME280;10604;51.976;7.594;2023-03-13T05:21:52;99100.16;;;11.75;100.00
20889;BME280;10604;51.976;7.594;2023-03-13T05:24:17;99100.16;;;11.75;100.00
20889;BME280;10604;51.976;7.594;2023-03-13T05:26:43;99099.78;;;11.81;100.00
20889;BME280;10604;51.976;7.594;2023-03-13T05:29:08;99084.69;;;11.83;100.00
20889;BME280;10604;51.976;7.594;2023-03-13T05:31:33;99098.53;;;11.87;100.00
20889;BME280;10604;51.976;7.594;2023-03-13T05:33:59;99090.16;;;11.94;100.00
20889;BME280;10604;51.976;7.594;2023-03-13T05:36:24;99080.34;;;11.82;100.00
20889;BME280;10604;51.976;7.594;2023-03-13T05:38:49;99077.91;;;11.93;100.00
20889;BME280;10604;51.976;7.594;2023-03-13T05:41:15;99073.44;;;11.94;100.00
20889;BME280;10604;51.976;7.594;2023-03-13T05:43:40;99074.13;;;11.97;100.00
20889;BME280;10604;51.976;7.594;2023-03-13T05:46:06;99075.81;;;11.98;100.00
20889;BME280;10604;51.976;7.594;2023-03-13T05:48:31;99076.00;;;11.95;100.00
20889;BME280;10604;51.976;7.594;2023-03-13T05:50:56;99072.50;;;11.95;100.00
20889;BME280;10604;51.976;7.594;2023-03-13T05:53:22;99070.31;;;12.01;100.00
20889;BME280;10604;51.976;7.594;2023-03-13T05:55:47;99086.38;;;11.98;100.00
20889;BME280;10604;51.976;7.594;2023-03-13T05:58:13;99076.56;;;12.00;100.00
20889;BME280;10604;51.976;7.594;2023-03-13T06:00:38;99082.69;;;12.01;100.00
20889;BME280;10604;51.976;7.594;2023-03-13T06:03:03;99069.75;;;12.10;100.00
20889;BME280;10604;51.976;7.594;2023-03-13T06:05:29;99077.88;;;12.07;100.00
20889;BME280;10604;51.976;7.594;2023-03-13T06:07:54;99070.13;;;12.04;100.00
20889;BME280;10604;51.976;7.594;2023-03-13T06:10:19;99076.03;;;12.22;100.00
20889;BME280;10604;51.976;7.594;2023-03-13T06:12:51;99071.72;;;12.21;100.00
20889;BME280;10604;51.976;7.594;2023-03-13T06:15:17;99072.38;;;12.25;100.00
20889;BME280;10604;51.976;7.594;2023-03-13T06:17:43;99070.47;;;12.27;100.00
20889;BME280;10604;51.976;7.594;2023-03-13T06:20:09;99066.69;;;12.31;100.00
20889;BME280;10604;51.976;7.594;2023-03-13T06:22:34;99061.97;;;12.36;100.00
20889;BME280;10604;51.976;7.594;2023-03-13T06:24:59;99063.38;;;12.41;100.00
20889;BME280;10604;51.976;7.594;2023-03-13T06:27:25;99057.22;;;12.41;100.00
20889;BME280;10604;51.976;7.594;2023-03-13T06:29:50;99059.09;;;12.39;100.00
20889;BME280;10604;51.976;7.594;2023-03-13T06:32:16;99065.06;;;12.42;100.00
20889;BME280;10604;51.976;7.594;2023-03-13T06:34:41;99055.88;;;12.48;100.00
20889;BME280;10604;51.976;7.594;2023-03-13T06:37:06;99062.28;;;12.44;100.00
20889;BME280;10604;51.976;7.594;2023-03-13T06:39:32;99070.31;;;12.57;100.00
20889;BME280;10604;51.976;7.594;2023-03-13T06:41:58;99066.59;;;12.59;100.00
20889;BME280;10604;51.976;7.594;2023-03-13T06:44:23;99067.00;;;12.53;100.00
20889;BME280;10604;51.976;7.594;2023-03-13T06:46:49;99070.09;;;12.60;100.00
20889;BME280;10604;51.976;7.594;2023-03-13T06:49:14;99061.53;;;12.56;100.00
20889;BME280;10604;51.976;7.594;2023-03-13T06:51:39;99064.28;;;12.67;100.00
20889;BME280;10604;51.976;7.594;2023-03-13T06:54:05;99060.72;;;12.68;100.00
20889;BME280;10604;51.976;7.594;2023-03-13T06:56:30;99060.09;;;12.77;100.00
20889;BME280;10604;51.976;7.594;2023-03-13T06:58:56;99061.59;;;12.81;100.00
20889;BME280;10604;51.976;7.594;2023-03-13T07:01:22;99063.09;;;12.85;100.00
20889;BME280;10604;51.976;7.594;2023-03-13T07:03:48;99068.41;;;12.85;100.00
20889;BME280;10604;51.976;7.594;2023-03-13T07:06:14;99055.88;;;12.87;100.00
20889;BME280;10604;51.976;7.594;2023-03-13T07:08:40;99056.31;;;12.94;100.00
20889;BME280;10604;51.976;7.594;2023-03-13T07:11:07;99065.03;;;13.09;100.00
20889;BME280;10604;51.976;7.594;2023-03-13T07:13:34;99071.22;;;13.22;100.00
20889;BME280;10604;51.976;7.594;2023-03-13T07:16:05;99050.69;;;13.13;100.00
20889;BME280;10604;51.976;7.594;2023-03-13T07:18:31;99063.50;;;13.19;100.00
20889;BME280;10604;51.976;7.594;2023-03-13T07:20:58;99055.91;;;13.27;100.00
20889;BME280;10604;51.976;7.594;2023-03-13T07:23:26;99067.66;;;13.36;100.00
20889;BME280;10604;51.976;7.594;2023-03-13T07:26:12;99056.00;;;13.38;100.00
20889;BME280;10604;51.976;7.594;2023-03-13T07:28:37;99067.84;;;13.45;100.00
20889;BME280;10604;51.976;7.594;2023-03-13T07:31:04;99051.09;;;13.57;100.00
20889;BME280;10604;51.976;7.594;2023-03-13T07:33:31;99052.19;;;13.55;100.00
20889;BME280;10604;51.976;7.594;2023-03-13T07:35:56;99038.41;;;13.62;100.00
20889;BME280;10604;51.976;7.594;2023-03-13T07:38:21;99034.16;;;13.60;100.00
20889;BME280;10604;51.976;7.594;2023-03-13T07:40:52;99021.84;;;13.71;100.00
20889;BME280;10604;51.976;7.594;2023-03-13T07:43:18;99022.50;;;13.75;99.64
20889;BME280;10604;51.976;7.594;2023-03-13T07:48:21;99005.75;;;13.75;98.11
20889;BME280;10604;51.976;7.594;2023-03-13T07:50:48;99008.06;;;13.92;97.49
20889;BME280;10604;51.976;7.594;2023-03-13T07:53:13;99006.50;;;14.00;96.64
20889;BME280;10604;51.976;7.594;2023-03-13T07:55:54;99003.31;;;14.08;95.87
20889;BME280;10604;51.976;7.594;2023-03-13T07:58:19;98998.34;;;14.03;96.14
20889;BME280;10604;51.976;7.594;2023-03-13T08:00:45;99013.06;;;14.07;95.01
20889;BME280;10604;51.976;7.594;2023-03-13T08:03:10;98995.91;;;14.13;94.31
20889;BME280;10604;51.976;7.594;2023-03-13T08:05:36;99006.25;;;14.16;94.42
20889;BME280;10604;51.976;7.594;2023-03-13T08:08:01;99004.66;;;14.26;93.96
20889;BME280;10604;51.976;7.594;2023-03-13T08:10:27;99005.59;;;14.25;93.38
20889;BME280;10604;51.976;7.594;2023-03-13T08:12:52;99006.50;;;14.13;93.70
20889;BME280;10604;51.976;7.594;2023-03-13T08:15:17;99005.25;;;14.30;93.31
20889;BME280;10604;51.976;7.594;2023-03-13T08:17:48;98990.69;;;14.35;92.03
20889;BME280;10604;51.976;7.594;2023-03-13T08:20:13;99004.41;;;14.29;92.02
20889;BME280;10604;51.976;7.594;2023-03-13T08:22:39;99000.91;;;14.41;91.28
20889;BME280;10604;51.976;7.594;2023-03-13T08:25:04;99007.66;;;14.45;91.36
20889;BME280;10604;51.976;7.594;2023-03-13T08:27:30;98993.91;;;14.40;90.48
20889;BME280;10604;51.976;7.594;2023-03-13T08:29:55;99006.72;;;14.46;90.94
20889;BME280;10604;51.976;7.594;2023-03-13T08:32:20;99002.56;;;14.42;91.32
20889;BME280;10604;51.976;7.594;2023-03-13T08:34:46;99013.91;;;14.44;91.16
20889;BME280;10604;51.976;7.594;2023-03-13T08:37:14;99000.91;;;14.41;90.62
20889;BME280;10604;51.976;7.594;2023-03-13T08:39:40;99003.31;;;14.44;90.15
20889;BME280;10604;51.976;7.594;2023-03-13T08:42:07;98994.91;;;14.50;89.95
20889;BME280;10604;51.976;7.594;2023-03-13T08:44:35;99001.91;;;14.52;89.18
20889;BME280;10604;51.976;7.594;2023-03-13T08:47:00;99006.22;;;14.41;89.78
20889;BME280;10604;51.976;7.594;2023-03-13T08:49:26;99003.31;;;14.44;89.94
20889;BME280;10604;51.976;7.594;2023-03-13T08:51:51;99004.06;;;14.46;90.30
20889;BME280;10604;51.976;7.594;2023-03-13T08:54:16;99027.63;;;14.38;90.86
20889;BME280;10604;51.976;7.594;2023-03-13T08:56:42;99023.38;;;14.48;90.20
20889;BME280;10604;51.976;7.594;2023-03-13T08:59:09;99001.16;;;14.49;89.44
20889;BME280;10604;51.976;7.594;2023-03-13T09:01:35;99013.75;;;14.59;89.72
20889;BME280;10604;51.976;7.594;2023-03-13T09:04:02;99000.72;;;14.56;90.00
20889;BME280;10604;51.976;7.594;2023-03-13T09:06:27;99000.38;;;14.60;89.61
20889;BME280;10604;51.976;7.594;2023-03-13T09:08:55;98998.47;;;14.62;89.46
20889;BME280;10604;51.976;7.594;2023-03-13T09:11:22;99002.66;;;14.65;89.40
20889;BME280;10604;51.976;7.594;2023-03-13T09:13:49;99007.59;;;14.58;88.66
20889;BME280;10604;51.976;7.594;2023-03-13T09:16:26;99004.38;;;14.66;88.42
20889;BME280;10604;51.976;7.594;2023-03-13T09:18:52;98992.44;;;14.71;88.05
20889;BME280;10604;51.976;7.594;2023-03-13T09:21:20;98998.13;;;14.78;87.51
20889;BME280;10604;51.976;7.594;2023-03-13T09:23:46;99003.13;;;14.94;86.82
20889;BME280;10604;51.976;7.594;2023-03-13T09:26:12;98994.38;;;15.04;86.20
20889;BME280;10604;51.976;7.594;2023-03-13T09:28:38;98982.56;;;15.42;84.45
20889;BME280;10604;51.976;7.594;2023-03-13T09:31:17;98985.88;;;15.68;84.07
20889;BME280;10604;51.976;7.594;2023-03-13T09:33:43;98979.94;;;15.75;81.96
20889;BME280;10604;51.976;7.594;2023-03-13T09:36:10;98969.03;;;16.00;81.11
20889;BME280;10604;51.976;7.594;2023-03-13T09:38:36;98970.50;;;16.36;80.97
20889;BME280;10604;51.976;7.594;2023-03-13T09:41:13;98973.75;;;16.40;79.50
20889;BME280;10604;51.976;7.594;2023-03-13T09:46:25;98968.50;;;16.50;78.22
20889;BME280;10604;51.976;7.594;2023-03-13T09:48:56;98970.84;;;16.43;78.14
20889;BME280;10604;51.976;7.594;2023-03-13T09:51:27;98946.25;;;16.19;78.33
20889;BME280;10604;51.976;7.594;2023-03-13T09:56:29;98956.59;;;17.88;73.43
20889;BME280;10604;51.976;7.594;2023-03-13T09:59:02;98943.59;;;18.23;71.83
20889;BME280;10604;51.976;7.594;2023-03-13T10:01:32;98938.31;;;17.83;72.49
20889;BME280;10604;51.976;7.594;2023-03-13T10:04:07;98957.88;;;17.53;74.61
20889;BME280;10604;51.976;7.594;2023-03-13T10:06:42;98952.47;;;16.93;74.92
20889;BME280;10604;51.976;7.594;2023-03-13T10:09:16;98942.41;;;16.75;75.49
20889;BME280;10604;51.976;7.594;2023-03-13T10:14:28;98950.97;;;16.79;76.24
20889;BME280;10604;51.976;7.594;2023-03-13T10:17:08;98951.19;;;16.66;75.93
20889;BME280;10604;51.976;7.594;2023-03-13T10:19:38;98945.22;;;16.74;77.64
20889;BME280;10604;51.976;7.594;2023-03-13T10:22:16;98949.59;;;17.26;74.04
20889;BME280;10604;51.976;7.594;2023-03-13T10:25:11;98929.75;;;17.49;72.22
20889;BME280;10604;51.976;7.594;2023-03-13T10:27:49;98924.00;;;17.75;71.65
20889;BME280;10604;51.976;7.594;2023-03-13T10:30:32;98943.44;;;17.26;72.69
20889;BME280;10604;51.976;7.594;2023-03-13T10:33:15;98931.75;;;17.27;73.30
20889;BME280;10604;51.976;7.594;2023-03-13T10:35:43;98931.78;;;17.06;72.64
20889;BME280;10604;51.976;7.594;2023-03-13T10:38:13;98919.53;;;17.85;70.85
20889;BME280;10604;51.976;7.594;2023-03-13T10:40:39;98915.56;;;17.79;69.65
20889;BME280;10604;51.976;7.594;2023-03-13T10:43:18;98917.38;;;18.57;67.86
20889;BME280;10604;51.976;7.594;2023-03-13T10:45:43;98919.06;;;19.24;65.92
20889;BME280;10604;51.976;7.594;2023-03-13T10:48:28;98903.25;;;19.03;64.71
20889;BME280;10604;51.976;7.594;2023-03-13T10:50:55;98892.13;;;19.35;66.37
20889;BME280;10604;51.976;7.594;2023-03-13T10:53:32;98888.34;;;18.91;66.43
20889;BME280;10604;51.976;7.594;2023-03-13T10:56:15;98883.31;;;18.69;66.64
20889;BME280;10604;51.976;7.594;2023-03-13T10:58:44;98885.84;;;19.27;65.18
20889;BME280;10604;51.976;7.594;2023-03-13T11:03:42;98881.63;;;18.87;64.43
20889;BME280;10604;51.976;7.594;2023-03-13T11:06:23;98881.81;;;18.47;65.78
20889;BME280;10604;51.976;7.594;2023-03-13T11:08:49;98882.22;;;18.14;67.71
20889;BME280;10604;51.976;7.594;2023-03-13T11:11:17;98899.22;;;18.03;67.34
20889;BME280;10604;51.976;7.594;2023-03-13T11:13:43;98873.75;;;18.76;66.19
20889;BME280;10604;51.976;7.594;2023-03-13T11:16:21;98885.00;;;18.89;64.75
20889;BME280;10604;51.976;7.594;2023-03-13T11:27:14;98863.66;;;19.44;62.15
20889;BME280;10604;51.976;7.594;2023-03-13T11:30:16;98857.44;;;18.79;64.12
20889;BME280;10604;51.976;7.594;2023-03-13T11:33:03;98862.25;;;18.66;63.68
20889;BME280;10604;51.976;7.594;2023-03-13T11:35:41;98861.41;;;18.36;66.07
20889;BME280;10604;51.976;7.594;2023-03-13T11:38:17;98833.88;;;18.46;66.19
20889;BME280;10604;51.976;7.594;2023-03-13T11:46:35;98837.25;;;18.28;66.37
20889;BME280;10604;51.976;7.594;2023-03-13T11:49:27;98845.41;;;17.98;66.46
20889;BME280;10604;51.976;7.594;2023-03-13T11:57:46;98833.66;;;19.23;63.85
20889;BME280;10604;51.976;7.594;2023-03-13T12:03:03;98817.13;;;19.64;62.66
20889;BME280;10604;51.976;7.594;2023-03-13T12:05:43;98822.47;;;19.64;62.97
20889;BME280;10604;51.976;7.594;2023-03-13T12:08:37;98809.03;;;18.92;63.37
20889;BME280;10604;51.976;7.594;2023-03-13T12:11:19;98795.31;;;19.04;64.21
20889;BME280;10604;51.976;7.594;2023-03-13T12:16:26;98787.75;;;19.54;62.88
20889;BME280;10604;51.976;7.594;2023-03-13T12:18:54;98790.84;;;19.77;60.00
20889;BME280;10604;51.976;7.594;2023-03-13T12:21:28;98784.09;;;19.28;60.06
20889;BME280;10604;51.976;7.594;2023-03-13T12:24:06;98782.03;;;19.22;59.32
20889;BME280;10604;51.976;7.594;2023-03-13T12:26:59;98781.31;;;19.20;59.21
20889;BME280;10604;51.976;7.594;2023-03-13T12:32:13;98776.31;;;19.07;60.53
20889;BME280;10604;51.976;7.594;2023-03-13T12:37:20;98773.00;;;19.50;58.00
20889;BME280;10604;51.976;7.594;2023-03-13T12:39:59;98761.47;;;19.50;58.50
20889;BME280;10604;51.976;7.594;2023-03-13T12:44:53;98767.16;;;19.37;56.46
20889;BME280;10604;51.976;7.594;2023-03-13T12:47:31;98764.34;;;19.11;57.18
20889;BME280;10604;51.976;7.594;2023-03-13T12:52:49;98748.78;;;19.52;56.09
20889;BME280;10604;51.976;7.594;2023-03-13T12:55:54;98730.59;;;19.73;57.01
20889;BME280;10604;51.976;7.594;2023-03-13T12:58:52;98726.63;;;19.77;54.39
20889;BME280;10604;51.976;7.594;2023-03-13T13:06:16;98715.28;;;19.83;53.60
20889;BME280;10604;51.976;7.594;2023-03-13T13:16:44;98736.09;;;19.54;53.54
20889;BME280;10604;51.976;7.594;2023-03-13T13:24:52;98719.97;;;19.18;55.26
20889;BME280;10604;51.976;7.594;2023-03-13T13:29:58;98719.13;;;19.63;53.02
20889;BME280;10604;51.976;7.594;2023-03-13T13:35:00;98699.53;;;19.09;52.02
20889;BME280;10604;51.976;7.594;2023-03-13T13:37:27;98701.41;;;18.99;53.43
20889;BME280;10604;51.976;7.594;2023-03-13T13:39:53;98693.47;;;18.90;54.88
20889;BME280;10604;51.976;7.594;2023-03-13T13:45:43;98692.44;;;18.91;52.75
20889;BME280;10604;51.976;7.594;2023-03-13T14:01:48;98716.41;;;18.46;55.87
20889;BME280;10604;51.976;7.594;2023-03-13T14:04:28;98699.28;;;18.38;56.68
20889;BME280;10604;51.976;7.594;2023-03-13T14:07:00;98699.47;;;18.55;57.29
20889;BME280;10604;51.976;7.594;2023-03-13T14:15:18;98676.59;;;18.15;59.90
20889;BME280;10604;51.976;7.594;2023-03-13T14:17:48;98665.09;;;18.05;59.08
20889;BME280;10604;51.976;7.594;2023-03-13T14:22:52;98653.88;;;18.02;59.00
20889;BME280;10604;51.976;7.594;2023-03-13T14:25:19;98653.84;;;18.11;58.41
20889;BME280;10604;51.976;7.594;2023-03-13T14:27:46;98653.38;;;18.25;58.73
20889;BME280;10604;51.976;7.594;2023-03-13T14:30:14;98657.44;;;18.20;58.08
20889;BME280;10604;51.976;7.594;2023-03-13T14:32:40;98657.16;;;18.32;57.46
20889;BME280;10604;51.976;7.594;2023-03-13T14:35:08;98654.06;;;18.27;56.34
20889;BME280;10604;51.976;7.594;2023-03-13T14:37:46;98658.31;;;18.20;55.65
20889;BME280;10604;51.976;7.594;2023-03-13T14:40:38;98660.84;;;18.12;56.70
20889;BME280;10604;51.976;7.594;2023-03-13T14:43:29;98663.34;;;18.23;57.37
20889;BME280;10604;51.976;7.594;2023-03-13T14:45:56;98640.78;;;18.08;56.48
20889;BME280;10604;51.976;7.594;2023-03-13T14:48:28;98638.19;;;17.89;57.53